createdAt,value
2017-08-20T00:00:03.489Z,1013.34
2017-08-20T00:00:48.992Z,1013.30
2017-08-20T00:01:49.002Z,1013.30
2017-08-20T00:02:49.009Z,1013.30
2017-08-20T00:03:49.023Z,1013.31
2017-08-20T00:04:49.031Z,1013.31
2017-08-20T00:05:49.048Z,1013.33
2017-08-20T00:06:49.056Z,1013.31
2017-08-20T00:07:49.070Z,1013.31
2017-08-20T00:08:49.077Z,1013.31
2017-08-20T00:09:49.102Z,1013.32
2017-08-20T00:10:49.101Z,1013.31
2017-08-20T00:11:49.118Z,1013.31
2017-08-20T00:12:49.128Z,1013.29
2017-08-20T00:13:49.141Z,1013.28
2017-08-20T00:14:49.148Z,1013.29
2017-08-20T00:15:49.171Z,1013.32
2017-08-20T00:16:49.172Z,1013.35
2017-08-20T00:17:49.184Z,1013.34
2017-08-20T00:18:49.198Z,1013.33
2017-08-20T00:19:49.209Z,1013.35
2017-08-20T00:20:49.221Z,1013.42
2017-08-20T00:21:49.231Z,1013.43
2017-08-20T00:22:49.241Z,1013.40
2017-08-20T00:23:49.257Z,1013.35
2017-08-20T00:24:49.267Z,1013.43
2017-08-20T00:25:49.281Z,1013.39
2017-08-20T00:26:49.288Z,1013.41
2017-08-20T00:27:49.303Z,1013.43
2017-08-20T00:28:49.313Z,1013.41
2017-08-20T00:29:49.336Z,1013.40
2017-08-20T00:30:49.408Z,1013.41
2017-08-20T00:31:49.352Z,1013.44
2017-08-20T00:32:49.371Z,1013.43
2017-08-20T00:33:49.368Z,1013.47
2017-08-20T00:34:49.378Z,1013.47
2017-08-20T00:35:49.400Z,1013.48
2017-08-20T00:36:49.404Z,1013.51
2017-08-20T00:37:49.420Z,1013.51
2017-08-20T00:38:49.428Z,1013.50
2017-08-20T00:39:49.448Z,1013.47
2017-08-20T00:40:49.452Z,1013.54
2017-08-20T00:41:49.472Z,1013.49
2017-08-20T00:42:49.471Z,1013.57
2017-08-20T00:43:49.489Z,1013.57
2017-08-20T00:44:49.501Z,1013.57
2017-08-20T00:45:49.529Z,1013.55
2017-08-20T00:46:49.526Z,1013.53
2017-08-20T00:47:49.547Z,1013.57
2017-08-20T00:48:49.545Z,1013.60
2017-08-20T00:49:50.559Z,1013.57
2017-08-20T00:50:49.569Z,1013.63
2017-08-20T00:51:50.586Z,1013.60
2017-08-20T00:52:49.587Z,1013.59
2017-08-20T00:53:49.622Z,1013.59
2017-08-20T00:54:49.612Z,1013.56
2017-08-20T00:55:49.628Z,1013.56
2017-08-20T00:56:49.636Z,1013.62
2017-08-20T00:57:49.651Z,1013.64
2017-08-20T00:58:49.659Z,1013.63
2017-08-20T00:59:49.680Z,1013.66
2017-08-20T01:00:49.682Z,1013.62
2017-08-20T01:01:49.705Z,1013.61
2017-08-20T01:02:49.708Z,1013.58
2017-08-20T01:03:49.721Z,1013.61
2017-08-20T01:04:49.729Z,1013.54
2017-08-20T01:05:49.746Z,1013.60
2017-08-20T01:06:49.749Z,1013.55
2017-08-20T01:07:49.773Z,1013.53
2017-08-20T01:08:49.773Z,1013.55
2017-08-20T01:09:49.792Z,1013.55
2017-08-20T01:10:49.802Z,1013.55
2017-08-20T01:11:49.812Z,1013.52
2017-08-20T01:12:49.824Z,1013.52
2017-08-20T01:13:49.837Z,1013.54
2017-08-20T01:14:49.845Z,1013.49
2017-08-20T01:15:49.870Z,1013.51
2017-08-20T01:16:49.865Z,1013.52
2017-08-20T01:17:49.881Z,1013.52
2017-08-20T01:18:49.901Z,1013.46
2017-08-20T01:19:49.907Z,1013.43
2017-08-20T01:20:49.913Z,1013.47
2017-08-20T01:21:49.939Z,1013.42
2017-08-20T01:22:49.943Z,1013.49
2017-08-20T01:23:49.952Z,1013.47
2017-08-20T01:24:49.957Z,1013.41
2017-08-20T01:25:49.978Z,1013.44
2017-08-20T01:26:49.980Z,1013.42
2017-08-20T01:27:50.007Z,1013.46
2017-08-20T01:28:50.005Z,1013.47
2017-08-20T01:29:50.024Z,1013.45
2017-08-20T01:30:50.025Z,1013.47
2017-08-20T01:31:50.041Z,1013.46
2017-08-20T01:32:50.046Z,1013.45
2017-08-20T01:33:50.059Z,1013.43
2017-08-20T01:34:50.078Z,1013.44
2017-08-20T01:35:50.096Z,1013.39
2017-08-20T01:36:50.092Z,1013.44
2017-08-20T01:37:50.111Z,1013.47
2017-08-20T01:38:50.118Z,1013.47
2017-08-20T01:39:50.135Z,1013.45
2017-08-20T01:40:50.143Z,1013.46
2017-08-20T01:41:50.157Z,1013.45
2017-08-20T01:42:50.162Z,1013.46
2017-08-20T01:43:50.182Z,1013.51
2017-08-20T01:44:50.190Z,1013.48
2017-08-20T01:45:50.226Z,1013.50
2017-08-20T01:46:50.214Z,1013.48
2017-08-20T01:47:50.227Z,1013.48
2017-08-20T01:48:50.236Z,1013.50
2017-08-20T01:49:50.253Z,1013.51
2017-08-20T01:50:50.257Z,1013.51
2017-08-20T01:51:50.273Z,1013.53
2017-08-20T01:52:50.282Z,1013.53
2017-08-20T01:53:50.293Z,1013.54
2017-08-20T01:54:50.299Z,1013.58
2017-08-20T01:55:50.328Z,1013.58
2017-08-20T01:56:50.329Z,1013.62
2017-08-20T01:57:50.340Z,1013.63
2017-08-20T01:58:50.350Z,1013.67
2017-08-20T01:59:50.367Z,1013.64
2017-08-20T02:00:50.360Z,1013.68
2017-08-20T02:01:50.387Z,1013.62
2017-08-20T02:02:50.391Z,1013.61
2017-08-20T02:03:50.403Z,1013.63
2017-08-20T02:04:50.412Z,1013.64
2017-08-20T02:05:50.427Z,1013.64
2017-08-20T02:06:50.436Z,1013.64
2017-08-20T02:07:50.455Z,1013.63
2017-08-20T02:08:50.463Z,1013.62
2017-08-20T02:09:50.478Z,1013.62
2017-08-20T02:10:50.486Z,1013.64
2017-08-20T02:11:50.495Z,1013.64
2017-08-20T02:12:50.580Z,1013.70
2017-08-20T02:13:50.518Z,1013.69
2017-08-20T02:14:50.527Z,1013.70
2017-08-20T02:15:50.543Z,1013.74
2017-08-20T02:16:50.555Z,1013.74
2017-08-20T02:17:50.567Z,1013.68
2017-08-20T02:18:50.573Z,1013.67
2017-08-20T02:19:51.591Z,1013.67
2017-08-20T02:20:50.598Z,1013.66
2017-08-20T02:21:50.609Z,1013.62
2017-08-20T02:22:50.618Z,1013.63
2017-08-20T02:23:50.638Z,1013.64
2017-08-20T02:24:50.639Z,1013.60
2017-08-20T02:25:50.653Z,1013.59
2017-08-20T02:27:50.673Z,1013.60
2017-08-20T02:28:50.691Z,1013.62
2017-08-20T02:29:50.705Z,1013.61
2017-08-20T02:30:50.712Z,1013.58
2017-08-20T02:31:50.719Z,1013.61
2017-08-20T02:32:50.734Z,1013.59
2017-08-20T02:33:50.740Z,1013.59
2017-08-20T02:34:50.756Z,1013.59
2017-08-20T02:35:50.767Z,1013.59
2017-08-20T02:36:50.778Z,1013.54
2017-08-20T02:37:50.809Z,1013.58
2017-08-20T02:38:50.801Z,1013.58
2017-08-20T02:39:50.813Z,1013.55
2017-08-20T02:40:50.824Z,1013.57
2017-08-20T02:41:50.827Z,1013.60
2017-08-20T02:42:50.846Z,1013.60
2017-08-20T02:44:50.866Z,1013.59
2017-08-20T02:45:50.882Z,1013.61
2017-08-20T02:46:50.899Z,1013.68
2017-08-20T02:47:50.901Z,1013.67
2017-08-20T02:48:50.912Z,1013.62
2017-08-20T02:49:50.930Z,1013.60
2017-08-20T02:50:50.936Z,1013.59
2017-08-20T02:51:50.947Z,1013.64
2017-08-20T02:52:50.959Z,1013.66
2017-08-20T02:53:50.964Z,1013.68
2017-08-20T02:54:50.983Z,1013.68
2017-08-20T02:55:50.989Z,1013.69
2017-08-20T02:56:51.000Z,1013.67
2017-08-20T02:57:51.012Z,1013.72
2017-08-20T02:58:51.026Z,1013.70
2017-08-20T02:59:51.034Z,1013.75
2017-08-20T03:00:51.051Z,1013.73
2017-08-20T03:01:51.056Z,1013.73
2017-08-20T03:03:51.074Z,1013.74
2017-08-20T03:04:51.088Z,1013.78
2017-08-20T03:05:51.098Z,1013.77
2017-08-20T03:06:51.120Z,1013.76
2017-08-20T03:08:51.139Z,1013.75
2017-08-20T03:09:51.147Z,1013.75
2017-08-20T03:10:51.155Z,1013.81
2017-08-20T03:11:51.169Z,1013.82
2017-08-20T03:12:51.184Z,1013.84
2017-08-20T03:13:51.196Z,1013.84
2017-08-20T03:14:51.209Z,1013.89
